createdAt,value
2017-06-10T00:01:15.564Z,0
2017-06-10T00:03:28.268Z,0
2017-06-10T00:04:08.750Z,0
2017-06-10T00:04:49.242Z,0
2017-06-10T00:05:29.735Z,0
2017-06-10T00:06:10.211Z,0
2017-06-10T00:06:50.706Z,0
2017-06-10T00:07:31.199Z,0
2017-06-10T00:08:12.468Z,0
2017-06-10T00:10:25.176Z,0
2017-06-10T00:11:05.660Z,0
2017-06-10T00:11:46.146Z,0
2017-06-10T00:12:26.609Z,0
2017-06-10T00:13:07.097Z,0
2017-06-10T00:13:47.575Z,0
2017-06-10T00:14:28.967Z,0
2017-06-10T00:15:10.075Z,0
2017-06-10T00:15:50.548Z,0
2017-06-10T00:16:31.002Z,0
2017-06-10T00:17:11.463Z,0
2017-06-10T00:17:51.911Z,0
2017-06-10T00:18:32.390Z,0
2017-06-10T00:19:12.845Z,0
2017-06-10T00:21:25.598Z,0
2017-06-10T00:22:06.062Z,0
2017-06-10T00:22:46.560Z,0
2017-06-10T00:23:27.058Z,0
2017-06-10T00:24:07.513Z,0
2017-06-10T00:24:47.968Z,0
2017-06-10T00:26:45.624Z,0
2017-06-10T00:27:26.122Z,0
2017-06-10T00:28:06.567Z,0
2017-06-10T00:28:47.040Z,0
2017-06-10T00:29:27.516Z,0
2017-06-10T00:30:08.017Z,0
2017-06-10T00:30:48.513Z,0
2017-06-10T00:31:29.489Z,0
2017-06-10T00:32:09.965Z,0
2017-06-10T00:32:50.476Z,0
2017-06-10T00:33:30.943Z,0
2017-06-10T00:34:11.397Z,0
2017-06-10T00:34:51.837Z,0
2017-06-10T00:35:32.293Z,0
2017-06-10T00:36:12.729Z,0
2017-06-10T00:36:53.167Z,0
2017-06-10T00:37:33.603Z,0
2017-06-10T00:38:14.055Z,0
2017-06-10T00:38:54.512Z,0
2017-06-10T00:39:34.958Z,0
2017-06-10T00:40:15.407Z,0
2017-06-10T00:40:55.826Z,0
2017-06-10T00:41:36.267Z,0
2017-06-10T00:42:16.721Z,0
2017-06-10T00:42:57.305Z,0
2017-06-10T00:43:37.819Z,0
2017-06-10T00:46:05.750Z,0
2017-06-10T00:46:46.217Z,0
2017-06-10T00:47:26.675Z,0
2017-06-10T00:48:08.059Z,0
2017-06-10T00:48:48.516Z,0
2017-06-10T00:49:28.948Z,0
2017-06-10T00:50:09.407Z,0
2017-06-10T00:50:49.835Z,0
2017-06-10T00:51:30.289Z,0
2017-06-10T00:52:10.719Z,0
2017-06-10T00:52:51.185Z,0
2017-06-10T00:53:31.653Z,0
2017-06-10T00:55:29.308Z,0
2017-06-10T00:56:09.762Z,0
2017-06-10T00:56:50.248Z,0
2017-06-10T00:57:30.740Z,0
2017-06-10T00:58:11.220Z,0
2017-06-10T00:58:51.697Z,0
2017-06-10T00:59:32.155Z,0
2017-06-10T01:00:12.639Z,0
2017-06-10T01:00:53.134Z,0
2017-06-10T01:01:33.578Z,0
2017-06-10T01:02:14.055Z,0
2017-06-10T01:04:50.331Z,0
2017-06-10T01:05:30.715Z,0
2017-06-10T01:06:11.124Z,0
2017-06-10T01:06:51.589Z,0
2017-06-10T01:07:32.064Z,0
2017-06-10T01:08:12.464Z,0
2017-06-10T01:08:52.924Z,0
2017-06-10T01:09:33.410Z,0
2017-06-10T01:10:13.814Z,0
2017-06-10T01:10:54.290Z,0
2017-06-10T01:13:12.090Z,0
2017-06-10T01:13:52.572Z,0
2017-06-10T01:14:33.038Z,0
2017-06-10T01:15:13.508Z,0
2017-06-10T01:15:53.959Z,0
2017-06-10T01:16:34.415Z,0
2017-06-10T01:17:14.893Z,0
2017-06-10T01:17:55.366Z,0
2017-06-10T01:18:35.829Z,0
2017-06-10T01:19:16.302Z,0
2017-06-10T01:19:56.797Z,0
2017-06-10T01:20:37.253Z,0
2017-06-10T01:21:17.712Z,0
2017-06-10T01:21:58.153Z,0
2017-06-10T01:22:38.630Z,0
2017-06-10T01:23:19.094Z,0
2017-06-10T01:23:59.569Z,0
2017-06-10T01:24:40.053Z,0
2017-06-10T01:25:20.500Z,0
2017-06-10T01:26:00.987Z,0
2017-06-10T01:26:41.419Z,0
2017-06-10T01:28:39.143Z,0
2017-06-10T01:29:19.571Z,0
2017-06-10T01:30:00.060Z,0
2017-06-10T01:30:40.541Z,0
2017-06-10T01:31:21.029Z,0
2017-06-10T01:32:01.544Z,0
2017-06-10T01:32:41.975Z,0
2017-06-10T01:34:59.793Z,0
2017-06-10T01:35:40.263Z,0
2017-06-10T01:36:20.735Z,0
2017-06-10T01:37:01.207Z,0
2017-06-10T01:37:41.695Z,0
2017-06-10T01:38:22.198Z,0
2017-06-10T01:39:02.633Z,0
2017-06-10T01:39:43.143Z,0
2017-06-10T01:40:23.604Z,0
2017-06-10T01:41:04.080Z,0
2017-06-10T01:41:44.514Z,0
2017-06-10T01:42:24.967Z,0
2017-06-10T01:43:05.423Z,0
2017-06-10T01:43:45.884Z,0
2017-06-10T01:44:26.306Z,0
2017-06-10T01:45:06.758Z,0
2017-06-10T01:45:47.230Z,0
2017-06-10T01:46:27.683Z,0
2017-06-10T01:47:08.143Z,0
2017-06-10T01:47:48.598Z,0
2017-06-10T01:48:29.051Z,0
2017-06-10T01:49:09.532Z,0
2017-06-10T01:49:50.011Z,0
2017-06-10T01:50:30.505Z,0
2017-06-10T01:51:10.989Z,0
2017-06-10T01:51:51.454Z,0
2017-06-10T01:52:31.940Z,0
2017-06-10T01:53:12.386Z,0
2017-06-10T01:53:52.818Z,0
2017-06-10T01:54:33.289Z,0
2017-06-10T01:55:13.735Z,0
2017-06-10T01:55:54.224Z,0
2017-06-10T01:56:34.645Z,0
2017-06-10T01:57:15.107Z,0
2017-06-10T01:57:55.567Z,0
2017-06-10T01:58:35.978Z,0
2017-06-10T01:59:16.428Z,0
2017-06-10T01:59:56.865Z,0
2017-06-10T02:00:37.314Z,0
2017-06-10T02:01:17.798Z,0
2017-06-10T02:01:58.269Z,0
2017-06-10T02:03:55.922Z,0
2017-06-10T02:04:36.406Z,0
2017-06-10T02:05:16.887Z,0
2017-06-10T02:05:57.377Z,0
2017-06-10T02:06:37.861Z,0
2017-06-10T02:07:18.397Z,0
2017-06-10T02:07:58.977Z,0
2017-06-10T02:08:39.419Z,0
2017-06-10T02:09:19.913Z,0
2017-06-10T02:10:00.395Z,0
2017-06-10T02:10:41.606Z,0
2017-06-10T02:11:22.095Z,0
2017-06-10T02:12:02.567Z,0
2017-06-10T02:12:43.980Z,0
2017-06-10T02:13:24.468Z,0
2017-06-10T02:14:04.964Z,0
2017-06-10T02:14:45.416Z,0
2017-06-10T02:15:25.914Z,0
2017-06-10T02:16:06.367Z,0
2017-06-10T02:16:47.629Z,0
2017-06-10T02:17:28.101Z,0
2017-06-10T02:18:08.591Z,0
2017-06-10T02:18:49.079Z,0
2017-06-10T02:19:29.660Z,0
2017-06-10T02:20:10.056Z,0
2017-06-10T02:20:50.554Z,0
2017-06-10T02:21:31.055Z,0
2017-06-10T02:22:11.546Z,0
2017-06-10T02:22:52.048Z,0
2017-06-10T02:23:32.503Z,0
2017-06-10T02:24:12.974Z,0
2017-06-10T02:24:53.461Z,0
2017-06-10T02:25:33.933Z,0
2017-06-10T02:26:14.420Z,0
2017-06-10T02:26:54.914Z,0
2017-06-10T02:27:35.377Z,0
2017-06-10T02:28:15.832Z,0
2017-06-10T02:30:34.516Z,0
2017-06-10T02:31:15.085Z,0
2017-06-10T02:31:55.477Z,0
2017-06-10T02:32:35.966Z,0
2017-06-10T02:33:16.541Z,0
2017-06-10T02:33:56.931Z,0
2017-06-10T02:34:37.410Z,0
2017-06-10T02:35:17.899Z,0
2017-06-10T02:35:58.356Z,0
2017-06-10T02:36:38.817Z,0
2017-06-10T02:38:36.477Z,0
2017-06-10T02:39:16.996Z,0
2017-06-10T02:39:58.004Z,0
2017-06-10T02:40:38.502Z,0
2017-06-10T02:41:18.970Z,0
2017-06-10T02:41:59.421Z,0
2017-06-10T02:42:39.904Z,0
2017-06-10T02:43:20.399Z,0
2017-06-10T02:44:00.897Z,0
2017-06-10T02:44:41.360Z,4
2017-06-10T02:45:21.859Z,4
2017-06-10T02:46:02.331Z,4
2017-06-10T02:46:42.779Z,4
2017-06-10T02:47:23.263Z,4
2017-06-10T02:48:03.726Z,0
2017-06-10T02:48:44.161Z,0
2017-06-10T02:50:41.771Z,4
2017-06-10T02:51:22.269Z,8
2017-06-10T02:52:02.764Z,4
2017-06-10T02:52:43.224Z,4
2017-06-10T02:53:23.723Z,8
2017-06-10T02:54:04.205Z,4
2017-06-10T02:54:44.690Z,8
2017-06-10T02:55:25.162Z,12
2017-06-10T02:56:05.643Z,8
2017-06-10T02:56:46.117Z,8
2017-06-10T02:57:26.607Z,12
2017-06-10T02:58:07.099Z,12
2017-06-10T02:58:47.576Z,12
2017-06-10T02:59:28.049Z,16
2017-06-10T03:00:08.517Z,16
2017-06-10T03:00:48.987Z,20
2017-06-10T03:01:29.435Z,20
2017-06-10T03:02:09.892Z,24
2017-06-10T03:02:50.357Z,24
2017-06-10T03:03:30.799Z,28
2017-06-10T03:04:11.220Z,28
2017-06-10T03:04:51.698Z,28
2017-06-10T03:05:32.139Z,32
2017-06-10T03:06:12.589Z,36
2017-06-10T03:08:45.649Z,44
2017-06-10T03:09:26.063Z,52
2017-06-10T03:10:06.540Z,56
2017-06-10T03:10:47.031Z,60
2017-06-10T03:11:27.546Z,64
2017-06-10T03:12:07.996Z,68
2017-06-10T03:12:48.476Z,72
2017-06-10T03:13:28.987Z,80
2017-06-10T03:14:09.467Z,88
2017-06-10T03:14:49.951Z,92
2017-06-10T03:15:30.452Z,96
2017-06-10T03:16:10.905Z,104
2017-06-10T03:18:43.944Z,136
2017-06-10T03:19:24.389Z,140
2017-06-10T03:20:04.821Z,152
2017-06-10T03:22:32.741Z,184
2017-06-10T03:23:14.141Z,196
2017-06-10T03:23:54.636Z,208
2017-06-10T03:24:35.103Z,212
2017-06-10T03:25:15.571Z,224
2017-06-10T03:25:56.035Z,240
2017-06-10T03:26:36.473Z,248
2017-06-10T03:27:16.930Z,264
2017-06-10T03:27:57.366Z,272
2017-06-10T03:28:37.850Z,288
2017-06-10T03:29:18.312Z,300
2017-06-10T03:29:58.764Z,316
2017-06-10T03:30:40.052Z,332
2017-06-10T03:31:20.515Z,348
2017-06-10T03:32:00.968Z,364
2017-06-10T03:32:41.428Z,380
2017-06-10T03:33:21.865Z,396
2017-06-10T03:35:49.791Z,452
2017-06-10T03:36:30.260Z,468
2017-06-10T03:37:10.733Z,484
2017-06-10T03:37:51.874Z,496
2017-06-10T03:38:32.352Z,512
2017-06-10T03:39:12.806Z,528
2017-06-10T03:39:53.285Z,544
2017-06-10T03:40:33.786Z,560
2017-06-10T03:41:14.258Z,576
2017-06-10T03:41:54.744Z,588
2017-06-10T03:42:35.170Z,608
2017-06-10T03:43:15.636Z,620
2017-06-10T03:43:56.097Z,632
2017-06-10T03:44:36.553Z,648
2017-06-10T03:45:17.033Z,664
2017-06-10T03:45:57.499Z,684
2017-06-10T03:46:37.973Z,696
2017-06-10T03:47:18.468Z,712
2017-06-10T03:47:58.954Z,732
2017-06-10T03:48:39.443Z,744
2017-06-10T03:49:19.913Z,760
2017-06-10T03:50:00.373Z,780
2017-06-10T03:50:40.808Z,800
2017-06-10T03:51:21.252Z,816
2017-06-10T03:52:01.710Z,832
2017-06-10T03:56:06.963Z,948
2017-06-10T03:56:47.390Z,964
2017-06-10T03:57:27.891Z,984
2017-06-10T03:58:08.389Z,1000
2017-06-10T03:58:48.853Z,1016
2017-06-10T03:59:29.333Z,1032
2017-06-10T04:00:09.797Z,1056
2017-06-10T04:00:50.275Z,1084
2017-06-10T04:01:30.767Z,1112
2017-06-10T04:02:11.248Z,1148
2017-06-10T04:02:51.728Z,1168
2017-06-10T04:03:32.201Z,1188
2017-06-10T04:06:00.152Z,1260
2017-06-10T04:06:40.620Z,1276
2017-06-10T04:07:21.102Z,1292
2017-06-10T04:08:01.565Z,1308
2017-06-10T04:08:42.046Z,1324
2017-06-10T04:09:22.551Z,1336
2017-06-10T04:10:03.028Z,1360
2017-06-10T04:10:43.490Z,1384
2017-06-10T04:11:23.925Z,1404
2017-06-10T04:12:04.382Z,1420
2017-06-10T04:12:44.872Z,1440
2017-06-10T04:13:25.348Z,1448
2017-06-10T04:14:05.837Z,1464
2017-06-10T04:14:46.311Z,1484
2017-06-10T04:15:26.767Z,1504
2017-06-10T04:16:07.213Z,1524
2017-06-10T04:16:47.685Z,1548
2017-06-10T04:17:28.154Z,1572
2017-06-10T04:18:08.638Z,1596
2017-06-10T04:18:49.107Z,1624
2017-06-10T04:19:29.604Z,1644
2017-06-10T04:20:10.082Z,1676
2017-06-10T04:20:50.548Z,1696
2017-06-10T04:21:31.021Z,1720
2017-06-10T04:22:11.445Z,1752
2017-06-10T04:22:51.906Z,1776
2017-06-10T04:23:32.371Z,1800
2017-06-10T04:24:12.835Z,1824
2017-06-10T04:24:53.323Z,1840
2017-06-10T04:25:33.798Z,1860
2017-06-10T04:26:14.294Z,1876
2017-06-10T04:26:54.785Z,1888
2017-06-10T04:27:35.259Z,1904
2017-06-10T04:28:15.722Z,1928
2017-06-10T04:28:56.189Z,1940
2017-06-10T04:29:36.654Z,1964
2017-06-10T04:30:18.010Z,1984
2017-06-10T04:30:58.456Z,2012
2017-06-10T04:31:38.959Z,2056
2017-06-10T04:32:19.456Z,2076
2017-06-10T04:32:59.925Z,2120
2017-06-10T04:33:40.369Z,2316
2017-06-10T04:34:20.828Z,2740
2017-06-10T04:35:01.282Z,3260
2017-06-10T04:35:41.753Z,3740
2017-06-10T04:38:09.645Z,4132
2017-06-10T04:38:50.114Z,4132
2017-06-10T04:39:30.588Z,4216
2017-06-10T04:40:11.064Z,4244
2017-06-10T04:40:51.573Z,4276
2017-06-10T04:41:32.039Z,4328
2017-06-10T04:42:12.506Z,4384
2017-06-10T04:42:52.989Z,4412
2017-06-10T04:43:33.480Z,4476
2017-06-10T04:44:13.963Z,4512
2017-06-10T04:44:54.446Z,4568
2017-06-10T04:45:34.904Z,4620
2017-06-10T04:46:15.355Z,4632
2017-06-10T04:46:55.845Z,4728
2017-06-10T04:47:36.307Z,4748
2017-06-10T04:48:16.766Z,4820
2017-06-10T04:48:57.219Z,4852
2017-06-10T04:49:37.671Z,4896
2017-06-10T04:50:18.132Z,4924
2017-06-10T04:52:51.150Z,5076
2017-06-10T04:53:31.599Z,5096
2017-06-10T04:54:12.060Z,5220
2017-06-10T04:54:52.515Z,5204
2017-06-10T04:55:32.954Z,5292
2017-06-10T04:56:13.412Z,5368
2017-06-10T04:56:53.881Z,5448
2017-06-10T04:57:34.364Z,5552
2017-06-10T04:58:14.840Z,5596
2017-06-10T04:58:55.352Z,5660
2017-06-10T04:59:35.816Z,5720
2017-06-10T05:00:16.297Z,5772
2017-06-10T05:00:56.754Z,5832
2017-06-10T05:01:37.245Z,5884
2017-06-10T05:02:17.739Z,5992
2017-06-10T05:02:58.222Z,6048
2017-06-10T05:03:38.664Z,6076
2017-06-10T05:05:51.410Z,6400
2017-06-10T05:06:31.902Z,6560
2017-06-10T05:07:12.374Z,6700
2017-06-10T05:07:52.874Z,6740
2017-06-10T05:08:33.367Z,6708
2017-06-10T05:09:13.832Z,6920
2017-06-10T05:09:54.266Z,7056
2017-06-10T05:10:34.709Z,7004
2017-06-10T05:11:15.185Z,6964
2017-06-10T05:11:55.630Z,6780
2017-06-10T05:12:36.075Z,6740
2017-06-10T05:13:16.563Z,6936
2017-06-10T05:13:57.032Z,6936
2017-06-10T05:14:37.525Z,6976
2017-06-10T05:15:18.011Z,6944
2017-06-10T05:15:58.508Z,7144
2017-06-10T05:16:39.004Z,7448
2017-06-10T05:17:19.479Z,7620
2017-06-10T05:17:59.961Z,7744
2017-06-10T05:18:40.432Z,7536
2017-06-10T05:19:20.914Z,7128
2017-06-10T05:20:01.394Z,5436
2017-06-10T05:20:41.886Z,7748
2017-06-10T05:21:22.379Z,7596
2017-06-10T05:22:02.837Z,7804
2017-06-10T05:22:43.345Z,7988
2017-06-10T05:23:23.821Z,8228
2017-06-10T05:24:04.277Z,8372
2017-06-10T05:24:44.725Z,8328
2017-06-10T05:26:42.354Z,8308
2017-06-10T05:27:22.891Z,8296
2017-06-10T05:28:03.339Z,8436
2017-06-10T05:28:43.815Z,8564
2017-06-10T05:29:24.297Z,8824
2017-06-10T05:30:04.750Z,8948
2017-06-10T05:30:45.244Z,9008
2017-06-10T05:31:25.732Z,9052
2017-06-10T05:32:06.227Z,9288
2017-06-10T05:32:46.728Z,9424
2017-06-10T05:33:27.207Z,9444
2017-06-10T05:34:07.702Z,9712
2017-06-10T05:34:48.172Z,9984
2017-06-10T05:35:28.655Z,10024
2017-06-10T05:36:09.141Z,10156
2017-06-10T05:38:31.132Z,11148
2017-06-10T05:39:11.382Z,10928
2017-06-10T05:39:51.848Z,11272
2017-06-10T05:40:32.300Z,11284
2017-06-10T05:41:12.780Z,11040
2017-06-10T05:41:53.227Z,10888
2017-06-10T05:42:33.685Z,11040
2017-06-10T05:43:14.164Z,11156
2017-06-10T05:43:54.621Z,11448
2017-06-10T05:44:35.060Z,11656
2017-06-10T05:45:15.481Z,11848
2017-06-10T05:45:55.990Z,11780
2017-06-10T05:46:36.420Z,12052
2017-06-10T05:47:16.813Z,12212
2017-06-10T05:47:57.337Z,12400
2017-06-10T05:48:37.811Z,12492
2017-06-10T05:49:18.279Z,12588
2017-06-10T05:49:58.711Z,12648
2017-06-10T05:50:39.160Z,13248
2017-06-10T05:51:19.603Z,13580
2017-06-10T05:52:00.082Z,13860
2017-06-10T05:52:40.559Z,14636
2017-06-10T05:55:13.620Z,13972
2017-06-10T05:55:54.097Z,14352
2017-06-10T05:56:34.588Z,12688
2017-06-10T05:57:15.062Z,14912
2017-06-10T05:57:55.541Z,15064
2017-06-10T05:58:36.037Z,15092
2017-06-10T05:59:16.517Z,15404
2017-06-10T05:59:57.001Z,15908
2017-06-10T06:00:37.497Z,15720
2017-06-10T06:01:17.972Z,11332
2017-06-10T06:01:58.422Z,11332
2017-06-10T06:02:39.759Z,15896
2017-06-10T06:03:20.207Z,16640
2017-06-10T06:04:00.656Z,16736
2017-06-10T06:04:41.085Z,16960
2017-06-10T06:05:21.535Z,17440
2017-06-10T06:06:02.005Z,17664
2017-06-10T06:08:14.748Z,18080
2017-06-10T06:08:55.226Z,18432
2017-06-10T06:09:35.686Z,18752
2017-06-10T06:10:16.156Z,17920
2017-06-10T06:10:56.636Z,18912
2017-06-10T06:11:37.125Z,19232
2017-06-10T06:12:17.600Z,19616
2017-06-10T06:12:58.096Z,14776
2017-06-10T06:13:38.544Z,12208
2017-06-10T06:14:19.005Z,7216
2017-06-10T06:14:59.463Z,6728
2017-06-10T06:16:57.112Z,12748
2017-06-10T06:17:37.678Z,8480
2017-06-10T06:18:18.069Z,20032
2017-06-10T06:18:58.567Z,13712
2017-06-10T06:19:39.063Z,9868
2017-06-10T06:20:19.561Z,14524
2017-06-10T06:21:00.047Z,9196
2017-06-10T06:21:40.584Z,6332
2017-06-10T06:22:21.010Z,5752
2017-06-10T06:23:01.494Z,10252
2017-06-10T06:23:42.015Z,25088
2017-06-10T06:24:22.500Z,25376
2017-06-10T06:25:02.970Z,22176
2017-06-10T06:25:43.443Z,28768
2017-06-10T06:26:23.947Z,27968
2017-06-10T06:27:04.447Z,28448
2017-06-10T06:27:44.954Z,28480
2017-06-10T06:28:25.429Z,28544
2017-06-10T06:29:05.898Z,29888
2017-06-10T06:29:46.380Z,30368
2017-06-10T06:30:26.878Z,30848
2017-06-10T06:31:07.324Z,27168
2017-06-10T06:31:47.762Z,30112
2017-06-10T06:32:28.220Z,31488
2017-06-10T06:34:46.033Z,31488
2017-06-10T06:35:26.520Z,31168
2017-06-10T06:36:06.961Z,31328
2017-06-10T06:36:47.449Z,31456
2017-06-10T06:37:27.887Z,30176
2017-06-10T06:38:08.347Z,29312
2017-06-10T06:38:49.594Z,28832
2017-06-10T06:39:30.064Z,28832
2017-06-10T06:40:10.494Z,29344
2017-06-10T06:42:23.230Z,70368
2017-06-10T06:43:03.712Z,76800
2017-06-10T06:43:44.194Z,78688
2017-06-10T06:44:24.687Z,73504
2017-06-10T06:45:05.153Z,65600
2017-06-10T06:45:45.642Z,58656
2017-06-10T06:46:26.125Z,53920
2017-06-10T06:47:06.606Z,58528
2017-06-10T06:47:47.059Z,61664
2017-06-10T06:48:27.539Z,57088
2017-06-10T06:49:08.037Z,52128
2017-06-10T06:49:48.486Z,53280
2017-06-10T06:50:28.987Z,55392
2017-06-10T06:51:09.453Z,57216
2017-06-10T06:51:49.902Z,55136
2017-06-10T06:52:30.385Z,55744
2017-06-10T06:53:10.816Z,56928
2017-06-10T06:53:51.289Z,59328
2017-06-10T06:54:31.752Z,58976
2017-06-10T06:55:12.222Z,57440
2017-06-10T06:55:52.723Z,55808
2017-06-10T06:56:33.198Z,56512
2017-06-10T06:57:13.675Z,57536
2017-06-10T06:57:54.135Z,59296
2017-06-10T06:58:34.613Z,59840
2017-06-10T06:59:15.115Z,57504
2017-06-10T06:59:55.600Z,58048
2017-06-10T07:00:36.073Z,58784
2017-06-10T07:01:16.536Z,59008
2017-06-10T07:01:57.011Z,56896
2017-06-10T07:02:37.452Z,56448
2017-06-10T07:03:17.908Z,57824
2017-06-10T07:03:58.355Z,57408
2017-06-10T07:04:38.775Z,57728
2017-06-10T07:05:19.254Z,57792
2017-06-10T07:05:59.733Z,54112
2017-06-10T07:06:40.205Z,53824
2017-06-10T07:07:20.709Z,53824
2017-06-10T07:08:01.719Z,58560
2017-06-10T07:10:34.821Z,56768
2017-06-10T07:11:15.848Z,58400
2017-06-10T07:11:56.343Z,56384
2017-06-10T07:12:36.838Z,58368
2017-06-10T07:13:17.291Z,59264
2017-06-10T07:13:57.766Z,60736
2017-06-10T07:14:39.062Z,58208
2017-06-10T07:15:19.531Z,60224
2017-06-10T07:16:00.016Z,33600
2017-06-10T07:16:40.509Z,16916
2017-06-10T07:17:20.996Z,22464
2017-06-10T07:18:01.475Z,53024
2017-06-10T07:18:41.941Z,39648
2017-06-10T07:19:22.420Z,61440
2017-06-10T07:20:02.865Z,66016
2017-06-10T07:20:43.320Z,68288
2017-06-10T07:21:23.804Z,67808
2017-06-10T07:22:04.244Z,61888
2017-06-10T07:22:44.705Z,51648
2017-06-10T07:23:25.188Z,39744
2017-06-10T07:24:05.655Z,28992
2017-06-10T07:26:18.458Z,16792
2017-06-10T07:26:58.951Z,16316
2017-06-10T07:27:39.424Z,16092
2017-06-10T07:28:19.901Z,16240
2017-06-10T07:29:00.394Z,16268
2017-06-10T07:29:40.883Z,15988
2017-06-10T07:30:21.379Z,15644
2017-06-10T07:31:01.883Z,15388
2017-06-10T07:31:42.368Z,15024
2017-06-10T07:32:22.867Z,15048
2017-06-10T07:33:04.146Z,13352
2017-06-10T07:33:44.649Z,15224
2017-06-10T07:34:25.139Z,15096
2017-06-10T07:35:05.626Z,14744
2017-06-10T07:35:46.119Z,14556
2017-06-10T07:36:26.577Z,14408
2017-06-10T07:37:07.060Z,14364
2017-06-10T07:37:47.546Z,14168
2017-06-10T07:38:28.010Z,13964
2017-06-10T07:39:08.507Z,13812
2017-06-10T07:39:48.992Z,13676
2017-06-10T07:40:29.485Z,13668
2017-06-10T07:41:09.991Z,13660
2017-06-10T07:41:50.473Z,13640
2017-06-10T07:42:31.018Z,13512
2017-06-10T07:43:11.487Z,13368
2017-06-10T07:43:51.943Z,13304
2017-06-10T07:44:32.413Z,13324
2017-06-10T07:45:12.919Z,13360
2017-06-10T07:45:53.433Z,13408
2017-06-10T07:46:33.928Z,13456
2017-06-10T07:47:14.481Z,13456
2017-06-10T07:47:54.974Z,13472
2017-06-10T07:48:35.464Z,13532
2017-06-10T07:49:15.954Z,13620
2017-06-10T07:49:56.450Z,13608
2017-06-10T07:50:36.945Z,13688
2017-06-10T07:51:17.437Z,13820
2017-06-10T07:51:57.942Z,13896
2017-06-10T07:52:38.443Z,13936
2017-06-10T07:53:18.924Z,14136
2017-06-10T07:53:59.416Z,14364
2017-06-10T07:54:39.930Z,14564
2017-06-10T07:55:20.407Z,14840
2017-06-10T07:56:00.898Z,14804
2017-06-10T07:56:41.385Z,14616
2017-06-10T07:57:21.880Z,14604
2017-06-10T07:58:02.386Z,14736
2017-06-10T07:58:42.860Z,14680
2017-06-10T07:59:23.360Z,14688
2017-06-10T08:00:03.870Z,14744
2017-06-10T08:00:44.359Z,14836
2017-06-10T08:01:24.840Z,15084
2017-06-10T08:02:05.349Z,15456
2017-06-10T08:02:45.833Z,16352
2017-06-10T08:03:26.337Z,19808
2017-06-10T08:04:06.814Z,28896
2017-06-10T08:04:47.315Z,37152
2017-06-10T08:05:27.815Z,44576
2017-06-10T08:06:08.319Z,58304
2017-06-10T08:06:48.837Z,69664
2017-06-10T08:07:29.429Z,77760
2017-06-10T08:08:09.795Z,80096
2017-06-10T08:08:50.836Z,81760
2017-06-10T08:09:31.343Z,83232
2017-06-10T08:10:11.850Z,81728
2017-06-10T08:10:52.321Z,83648
2017-06-10T08:11:32.785Z,83488
2017-06-10T08:12:13.250Z,84192
2017-06-10T08:12:53.694Z,82336
2017-06-10T08:13:34.815Z,81472
2017-06-10T08:14:15.280Z,78400
2017-06-10T08:14:55.790Z,79264
2017-06-10T08:17:23.772Z,20352
2017-06-10T08:18:04.254Z,17144
2017-06-10T08:18:44.705Z,17132
2017-06-10T08:19:25.147Z,17416
2017-06-10T08:20:05.613Z,17984
2017-06-10T08:20:46.069Z,18240
2017-06-10T08:21:26.525Z,18304
2017-06-10T08:22:06.993Z,18336
2017-06-10T08:22:47.461Z,18432
2017-06-10T08:23:27.929Z,18848
2017-06-10T08:24:08.427Z,19328
2017-06-10T08:24:48.924Z,19712
2017-06-10T08:25:29.456Z,19776
2017-06-10T08:26:09.915Z,19904
2017-06-10T08:26:50.371Z,21248
2017-06-10T08:27:30.818Z,38016
2017-06-10T08:28:11.282Z,59744
2017-06-10T08:30:24.030Z,91584
2017-06-10T08:31:04.507Z,93472
2017-06-10T08:31:44.965Z,96864
2017-06-10T08:32:25.442Z,96544
2017-06-10T08:33:05.945Z,96608
2017-06-10T08:33:46.442Z,94592
2017-06-10T08:34:26.918Z,94272
2017-06-10T08:35:07.382Z,97280
2017-06-10T08:35:47.854Z,99264
2017-06-10T08:36:28.344Z,99232
2017-06-10T08:37:09.711Z,101888
2017-06-10T08:39:22.428Z,101440
2017-06-10T08:40:02.949Z,94368
2017-06-10T08:40:44.306Z,93600
2017-06-10T08:41:24.761Z,99008
2017-06-10T08:42:05.226Z,102336
2017-06-10T08:42:45.690Z,101888
2017-06-10T08:45:13.638Z,101280
2017-06-10T08:45:54.119Z,104128
2017-06-10T08:46:34.611Z,104032
2017-06-10T08:47:15.071Z,83232
2017-06-10T08:47:55.549Z,52800
2017-06-10T08:48:36.011Z,34336
2017-06-10T08:49:16.468Z,30944
2017-06-10T08:49:56.936Z,30080
2017-06-10T08:50:37.424Z,29824
2017-06-10T08:51:17.899Z,29760
2017-06-10T08:51:58.367Z,29696
2017-06-10T08:52:38.829Z,30336
2017-06-10T08:53:19.302Z,31008
2017-06-10T08:53:59.760Z,31776
2017-06-10T08:54:40.176Z,32992
2017-06-10T08:55:20.654Z,34496
2017-06-10T08:56:01.147Z,35744
2017-06-10T08:56:41.633Z,37792
2017-06-10T08:57:22.108Z,38912
2017-06-10T08:58:02.592Z,40832
2017-06-10T08:58:43.073Z,43968
2017-06-10T08:59:23.522Z,51136
2017-06-10T09:00:03.966Z,83520
2017-06-10T09:02:16.709Z,45920
2017-06-10T09:02:57.214Z,135712
2017-06-10T09:03:37.673Z,124224
2017-06-10T09:04:18.185Z,129824
2017-06-10T09:04:58.693Z,15268
2017-06-10T09:05:39.191Z,114400
2017-06-10T09:06:19.674Z,117600
2017-06-10T09:07:00.175Z,114112
2017-06-10T09:07:40.650Z,114976
2017-06-10T09:08:21.147Z,117216
2017-06-10T09:09:01.618Z,66432
2017-06-10T09:09:42.114Z,117696
2017-06-10T09:10:22.589Z,12092
2017-06-10T09:11:03.077Z,11268
2017-06-10T09:11:43.539Z,10792
2017-06-10T09:12:24.000Z,9500
2017-06-10T09:13:04.509Z,10052
2017-06-10T09:13:44.996Z,10580
2017-06-10T09:14:25.486Z,10936
2017-06-10T09:15:06.002Z,10624
2017-06-10T09:15:46.491Z,11624
2017-06-10T09:16:26.951Z,12796
2017-06-10T09:17:07.450Z,13304
2017-06-10T09:17:47.935Z,13572
2017-06-10T09:18:28.424Z,21696
2017-06-10T09:19:08.902Z,85536
2017-06-10T09:19:49.346Z,119520
2017-06-10T09:22:22.414Z,109792
2017-06-10T09:23:02.871Z,109056
2017-06-10T09:23:43.365Z,108608
2017-06-10T09:24:23.852Z,106016
2017-06-10T09:25:04.351Z,104640
2017-06-10T09:25:44.819Z,104192
2017-06-10T09:26:25.328Z,101984
2017-06-10T09:27:05.794Z,103520
2017-06-10T09:27:46.270Z,70688
2017-06-10T09:30:19.307Z,23168
2017-06-10T09:30:59.802Z,17952
2017-06-10T09:31:40.284Z,64160
2017-06-10T09:32:20.835Z,18432
2017-06-10T09:33:01.302Z,67200
2017-06-10T09:33:41.798Z,108352
2017-06-10T09:34:22.273Z,108896
2017-06-10T09:35:02.752Z,89184
2017-06-10T09:35:43.226Z,59968
2017-06-10T09:38:01.088Z,28576
2017-06-10T09:38:41.553Z,28384
2017-06-10T09:39:22.052Z,28192
2017-06-10T09:40:02.537Z,28448
2017-06-10T09:40:43.056Z,29824
2017-06-10T09:41:23.508Z,32032
2017-06-10T09:42:03.977Z,31200
2017-06-10T09:42:44.452Z,30432
2017-06-10T09:43:24.952Z,28960
2017-06-10T09:44:05.427Z,28768
2017-06-10T09:44:45.890Z,27744
2017-06-10T09:45:26.352Z,27584
2017-06-10T09:46:06.836Z,27424
2017-06-10T09:46:47.322Z,28032
2017-06-10T09:47:27.821Z,28032
2017-06-10T09:48:08.316Z,22784
2017-06-10T09:48:48.796Z,25664
2017-06-10T09:49:29.295Z,25536
2017-06-10T09:50:09.761Z,25120
2017-06-10T09:50:50.248Z,24544
2017-06-10T09:51:30.740Z,19520
2017-06-10T09:52:11.220Z,21984
2017-06-10T09:52:51.692Z,11992
2017-06-10T09:53:32.154Z,12760
2017-06-10T09:54:12.606Z,12528
2017-06-10T09:54:53.034Z,13360
2017-06-10T09:55:33.485Z,17444
2017-06-10T09:56:13.943Z,14948
2017-06-10T09:56:54.420Z,12748
2017-06-10T09:57:34.887Z,12500
2017-06-10T09:58:15.390Z,12856
2017-06-10T09:58:55.887Z,13972
2017-06-10T09:59:36.380Z,14608
2017-06-10T10:00:16.868Z,14264
2017-06-10T10:00:57.369Z,14020
2017-06-10T10:01:37.844Z,13480
2017-06-10T10:02:18.312Z,13780
2017-06-10T10:02:58.760Z,20544
2017-06-10T10:03:39.217Z,20096
2017-06-10T10:04:19.708Z,18944
2017-06-10T10:05:00.172Z,18076
2017-06-10T10:05:40.629Z,17656
2017-06-10T10:06:21.067Z,17496
2017-06-10T10:07:01.539Z,17392
2017-06-10T10:07:41.987Z,17312
2017-06-10T10:09:39.638Z,16396
2017-06-10T10:10:20.147Z,16120
2017-06-10T10:11:00.643Z,16084
2017-06-10T10:11:41.133Z,17024
2017-06-10T10:12:22.403Z,16180
2017-06-10T10:13:02.872Z,12752
2017-06-10T10:13:43.343Z,12076
2017-06-10T10:14:23.826Z,11696
2017-06-10T10:15:04.297Z,11568
2017-06-10T10:15:44.748Z,11628
2017-06-10T10:16:25.272Z,11716